createdAt,value
2023-05-25T00:01:04.865Z,1.70
2023-05-25T00:03:32.658Z,1.85
2023-05-25T00:06:04.239Z,2.17
2023-05-25T00:08:31.108Z,2.30
2023-05-25T00:10:58.024Z,2.00
2023-05-25T00:13:24.899Z,2.00
2023-05-25T00:15:51.807Z,1.92
2023-05-25T00:18:18.946Z,2.13
2023-05-25T00:20:49.564Z,2.05
2023-05-25T00:23:16.356Z,1.65
2023-05-25T00:25:43.202Z,2.03
2023-05-25T00:28:11.938Z,2.20
2023-05-25T00:30:39.118Z,2.20
2023-05-25T00:33:06.337Z,1.67
2023-05-25T00:35:33.126Z,1.90
2023-05-25T00:37:59.862Z,1.88
2023-05-25T00:40:26.595Z,2.00
2023-05-25T00:42:53.482Z,2.40
2023-05-25T00:45:20.605Z,2.20
2023-05-25T00:47:52.548Z,2.25
2023-05-25T00:50:36.825Z,2.20
2023-05-25T00:53:06.263Z,2.30
2023-05-25T00:55:41.257Z,2.50
2023-05-25T00:58:11.670Z,2.03
2023-05-25T01:00:42.484Z,1.90
2023-05-25T01:03:17.755Z,2.13
2023-05-25T01:05:48.917Z,2.13
2023-05-25T01:08:24.207Z,2.28
2023-05-25T01:10:53.532Z,2.22
2023-05-25T01:13:21.306Z,2.13
2023-05-25T01:15:50.482Z,2.25
2023-05-25T01:18:18.146Z,1.90
2023-05-25T01:20:58.696Z,1.77
2023-05-25T01:23:34.807Z,2.13
2023-05-25T01:26:09.922Z,2.25
2023-05-25T01:28:46.595Z,2.30
2023-05-25T01:31:16.691Z,1.50
2023-05-25T01:33:45.414Z,2.08
2023-05-25T01:36:12.234Z,2.25
2023-05-25T01:38:39.081Z,2.30
2023-05-25T01:41:06.028Z,2.17
2023-05-25T01:43:32.899Z,2.28
2023-05-25T01:46:11.105Z,1.85
2023-05-25T01:48:51.009Z,1.90
2023-05-25T01:51:38.542Z,1.60
2023-05-25T01:54:20.177Z,1.75
2023-05-25T01:56:49.846Z,1.83
2023-05-25T01:59:21.818Z,2.28
2023-05-25T02:01:53.121Z,2.17
2023-05-25T02:04:22.164Z,2.53
2023-05-25T02:06:52.229Z,2.03
2023-05-25T02:09:19.059Z,2.00
2023-05-25T02:11:46.041Z,2.40
2023-05-25T02:14:13.324Z,2.22
2023-05-25T02:16:40.143Z,2.20
2023-05-25T02:19:07.222Z,2.25
2023-05-25T02:21:36.947Z,2.17
2023-05-25T02:24:04.006Z,3.10
2023-05-25T02:26:30.873Z,2.35
2023-05-25T02:28:57.683Z,2.13
2023-05-25T02:31:24.477Z,2.47
2023-05-25T02:33:51.281Z,2.10
2023-05-25T02:36:20.589Z,3.15
2023-05-25T02:38:49.785Z,2.20
2023-05-25T02:41:16.680Z,2.08
2023-05-25T02:43:43.720Z,2.30
2023-05-25T02:46:10.687Z,2.58
2023-05-25T02:48:37.634Z,2.30
2023-05-25T02:51:05.032Z,2.10
2023-05-25T02:53:31.781Z,1.95
2023-05-25T02:56:01.124Z,2.50
2023-05-25T02:58:28.387Z,2.40
2023-05-25T03:00:56.020Z,2.33
2023-05-25T03:03:22.874Z,2.28
2023-05-25T03:05:50.475Z,1.90
2023-05-25T03:08:20.342Z,2.22
2023-05-25T03:10:47.172Z,2.15
2023-05-25T03:13:14.158Z,2.55
2023-05-25T03:15:40.984Z,2.10
2023-05-25T03:18:07.776Z,2.40
2023-05-25T03:20:34.891Z,2.35
2023-05-25T03:23:06.580Z,2.40
2023-05-25T03:25:33.356Z,2.60
2023-05-25T03:28:00.134Z,2.47
2023-05-25T03:30:26.910Z,2.22
2023-05-25T03:32:53.805Z,2.45
2023-05-25T03:35:20.643Z,2.10
2023-05-25T03:37:47.441Z,2.38
2023-05-25T03:40:14.494Z,2.47
2023-05-25T03:42:41.518Z,2.80
2023-05-25T03:45:09.314Z,2.13
2023-05-25T03:47:37.256Z,2.10
2023-05-25T03:50:06.953Z,1.95
2023-05-25T03:52:34.102Z,2.20
2023-05-25T03:55:05.167Z,2.13
2023-05-25T03:57:31.915Z,1.80
2023-05-25T03:59:58.752Z,2.53
2023-05-25T04:02:25.594Z,3.40
2023-05-25T04:04:53.498Z,2.03
2023-05-25T04:07:20.619Z,2.37
2023-05-25T04:09:47.390Z,2.15
2023-05-25T04:12:14.142Z,2.73
2023-05-25T04:14:42.567Z,2.10
2023-05-25T04:17:09.623Z,2.28
2023-05-25T04:19:36.386Z,2.40
2023-05-25T04:22:03.229Z,2.40
2023-05-25T04:24:30.025Z,2.67
2023-05-25T04:26:56.929Z,2.42
2023-05-25T04:29:23.726Z,2.63
2023-05-25T04:31:51.483Z,2.63
2023-05-25T04:34:18.355Z,2.30
2023-05-25T04:36:45.179Z,2.90
2023-05-25T04:39:11.945Z,2.77
2023-05-25T04:41:39.268Z,3.00
2023-05-25T04:44:09.601Z,2.75
2023-05-25T04:46:37.552Z,2.70
2023-05-25T04:49:05.717Z,2.80
2023-05-25T04:51:32.664Z,2.67
2023-05-25T04:53:59.828Z,2.47
2023-05-25T04:56:26.783Z,2.78
2023-05-25T04:58:53.914Z,2.58
2023-05-25T05:01:20.868Z,3.22
2023-05-25T05:03:47.751Z,2.53
2023-05-25T05:06:14.986Z,3.67
2023-05-25T05:08:42.340Z,2.58
2023-05-25T05:11:09.200Z,3.00
2023-05-25T05:13:49.317Z,3.65
2023-05-25T05:16:16.222Z,2.92
2023-05-25T05:18:42.987Z,2.60
2023-05-25T05:21:09.798Z,2.80
2023-05-25T05:23:39.544Z,2.65
2023-05-25T05:26:09.287Z,3.13
2023-05-25T05:28:36.149Z,3.53
2023-05-25T05:31:03.027Z,2.70
2023-05-25T05:33:30.441Z,2.65
2023-05-25T05:35:57.339Z,2.88
2023-05-25T05:38:24.151Z,3.05
2023-05-25T05:40:51.856Z,3.30
2023-05-25T05:43:18.827Z,3.72
2023-05-25T05:45:45.936Z,3.45
2023-05-25T05:48:12.949Z,3.97
2023-05-25T05:50:42.297Z,3.17
2023-05-25T05:53:10.198Z,4.53
2023-05-25T05:55:37.303Z,4.20
2023-05-25T05:58:04.139Z,4.30
2023-05-25T06:00:31.335Z,3.50
2023-05-25T06:02:58.312Z,4.13
2023-05-25T06:05:26.417Z,5.03
2023-05-25T06:07:53.299Z,4.88
2023-05-25T06:10:20.245Z,4.88
2023-05-25T06:12:47.054Z,4.75
2023-05-25T06:15:13.855Z,4.28
2023-05-25T06:17:41.765Z,4.90
2023-05-25T06:20:09.920Z,4.82
2023-05-25T06:22:36.990Z,4.93
2023-05-25T06:25:06.876Z,5.68
2023-05-25T06:27:33.660Z,5.07
2023-05-25T06:30:00.543Z,4.40
2023-05-25T06:32:27.393Z,4.75
2023-05-25T06:34:55.572Z,4.63
2023-05-25T06:37:22.489Z,4.03
2023-05-25T06:39:49.276Z,5.45
2023-05-25T06:42:16.190Z,4.25
2023-05-25T06:44:42.974Z,5.45
2023-05-25T06:47:09.718Z,4.68
2023-05-25T06:49:36.512Z,4.07
2023-05-25T06:52:03.306Z,5.82
2023-05-25T06:54:30.177Z,4.68
2023-05-25T06:56:57.014Z,4.80
2023-05-25T06:59:23.763Z,4.45
2023-05-25T07:01:50.928Z,3.95
2023-05-25T07:04:17.917Z,3.97
2023-05-25T07:06:44.805Z,4.55
2023-05-25T07:09:11.664Z,4.05
2023-05-25T07:11:38.458Z,3.22
2023-05-25T07:14:05.292Z,3.35
2023-05-25T07:16:32.116Z,3.75
2023-05-25T07:19:00.367Z,3.90
2023-05-25T07:21:27.738Z,3.60
2023-05-25T07:23:54.521Z,3.67
2023-05-25T07:26:23.295Z,3.25
2023-05-25T07:28:50.108Z,3.92
2023-05-25T07:31:17.641Z,4.55
2023-05-25T07:33:45.014Z,4.28
2023-05-25T07:36:12.494Z,3.78
2023-05-25T07:38:39.446Z,3.15
2023-05-25T07:41:06.485Z,3.05
2023-05-25T07:43:33.361Z,3.10
2023-05-25T07:46:02.366Z,2.58
2023-05-25T07:48:29.211Z,2.78
2023-05-25T07:50:56.503Z,3.35
2023-05-25T07:53:23.474Z,2.88
2023-05-25T07:55:50.761Z,2.88
2023-05-25T07:58:17.565Z,2.58
2023-05-25T08:00:44.442Z,2.40
2023-05-25T08:03:11.420Z,2.30
2023-05-25T08:05:38.312Z,2.22
2023-05-25T08:08:05.149Z,3.25
2023-05-25T08:10:32.389Z,2.72
2023-05-25T08:12:59.479Z,2.15
2023-05-25T08:15:27.131Z,3.40
2023-05-25T08:17:54.072Z,3.55
2023-05-25T08:20:21.006Z,2.67
2023-05-25T08:22:47.924Z,2.28
2023-05-25T08:25:14.747Z,2.40
2023-05-25T08:27:41.546Z,2.60
2023-05-25T08:30:09.048Z,2.95
2023-05-25T08:32:36.042Z,1.80
2023-05-25T08:35:03.508Z,1.98
2023-05-25T08:37:32.315Z,1.92
2023-05-25T08:40:02.174Z,2.60
2023-05-25T08:42:29.794Z,2.38
2023-05-25T08:44:57.277Z,2.20
2023-05-25T08:47:24.985Z,2.60
2023-05-25T08:49:56.310Z,2.03
2023-05-25T08:52:27.795Z,2.10
2023-05-25T08:55:00.963Z,2.20
2023-05-25T08:57:34.314Z,2.33
2023-05-25T09:00:11.783Z,1.85
2023-05-25T09:03:02.193Z,2.22
2023-05-25T09:05:29.302Z,1.85
2023-05-25T09:07:57.110Z,1.55
2023-05-25T09:10:27.733Z,2.90
2023-05-25T09:12:56.285Z,1.50
2023-05-25T09:15:23.538Z,1.65
2023-05-25T09:17:50.331Z,2.00
2023-05-25T09:20:19.676Z,1.88
2023-05-25T09:22:48.187Z,2.00
2023-05-25T09:25:20.554Z,1.70
2023-05-25T09:27:47.498Z,1.48
2023-05-25T09:30:14.381Z,1.60
2023-05-25T09:32:42.287Z,2.63
2023-05-25T09:35:15.826Z,1.92
2023-05-25T09:37:44.563Z,1.80
2023-05-25T09:40:11.863Z,1.98
2023-05-25T09:42:39.067Z,1.85
2023-05-25T09:45:06.930Z,2.30
2023-05-25T09:47:36.281Z,2.03
2023-05-25T09:50:05.013Z,1.67
2023-05-25T09:52:31.882Z,1.83
2023-05-25T09:54:59.204Z,1.83
2023-05-25T09:57:28.262Z,1.67
2023-05-25T09:59:55.174Z,1.75
2023-05-25T10:02:22.273Z,1.52
2023-05-25T10:04:49.226Z,1.70
2023-05-25T10:07:17.276Z,2.05
2023-05-25T10:09:47.050Z,1.98
2023-05-25T10:12:21.241Z,1.77
2023-05-25T10:14:53.919Z,1.92
2023-05-25T10:17:28.817Z,2.88
2023-05-25T10:20:00.432Z,2.03
2023-05-25T10:22:50.842Z,1.90
2023-05-25T10:25:28.930Z,1.92
2023-05-25T10:28:02.003Z,2.17
2023-05-25T10:30:29.306Z,1.98
2023-05-25T10:32:59.024Z,1.92
2023-05-25T10:35:28.540Z,2.55
2023-05-25T10:37:58.523Z,3.25
2023-05-25T10:40:25.298Z,2.40
2023-05-25T10:42:52.172Z,2.33
2023-05-25T10:45:20.136Z,2.22
2023-05-25T10:47:47.540Z,2.05
2023-05-25T10:50:24.457Z,2.47
2023-05-25T10:53:02.836Z,2.30
2023-05-25T10:56:01.841Z,2.28
2023-05-25T10:58:30.406Z,2.80
2023-05-25T11:01:18.467Z,2.00
2023-05-25T11:03:45.733Z,2.67
2023-05-25T11:06:39.755Z,2.38
2023-05-25T11:09:07.156Z,2.78
2023-05-25T11:11:43.189Z,2.88
2023-05-25T11:14:26.923Z,2.05
2023-05-25T11:17:32.334Z,2.67
2023-05-25T11:20:06.242Z,2.20
2023-05-25T11:22:36.247Z,2.38
2023-05-25T11:25:55.967Z,2.65
2023-05-25T11:28:23.015Z,2.83
2023-05-25T11:30:49.785Z,2.47
2023-05-25T11:33:22.045Z,2.63
2023-05-25T11:36:09.145Z,2.60
2023-05-25T11:38:37.536Z,1.70
2023-05-25T11:41:04.636Z,2.47
2023-05-25T11:43:34.100Z,2.85
2023-05-25T11:46:02.733Z,2.45
2023-05-25T11:48:29.471Z,2.00
2023-05-25T11:51:09.692Z,2.33
2023-05-25T11:53:43.823Z,1.67
2023-05-25T11:56:35.926Z,1.90
2023-05-25T11:59:08.127Z,1.73
2023-05-25T12:01:34.935Z,2.00
2023-05-25T12:04:09.863Z,1.75
2023-05-25T12:06:36.945Z,1.30
2023-05-25T12:09:10.215Z,1.42
2023-05-25T12:11:41.141Z,1.10
2023-05-25T12:14:08.069Z,1.70
2023-05-25T12:16:41.223Z,2.10
2023-05-25T12:19:11.185Z,2.17
2023-05-25T12:21:43.843Z,1.70
2023-05-25T12:24:15.369Z,1.85
2023-05-25T12:27:04.741Z,2.63
2023-05-25T12:29:32.027Z,1.95
2023-05-25T12:32:05.559Z,2.10
2023-05-25T12:34:32.404Z,1.70
2023-05-25T12:36:59.210Z,1.42
2023-05-25T12:39:32.083Z,1.48
2023-05-25T12:42:02.294Z,1.80
2023-05-25T12:44:34.773Z,1.92
2023-05-25T12:47:32.231Z,1.50
2023-05-25T12:50:17.835Z,1.88
2023-05-25T12:52:47.201Z,2.33
2023-05-25T12:55:22.081Z,1.60
2023-05-25T12:57:55.134Z,1.85
2023-05-25T13:00:27.617Z,1.85
2023-05-25T13:02:54.875Z,2.58
2023-05-25T13:05:28.723Z,3.13
2023-05-25T13:07:57.801Z,2.00
2023-05-25T13:10:25.654Z,1.85
2023-05-25T13:12:53.883Z,2.40
2023-05-25T13:15:21.952Z,3.10
2023-05-25T13:17:51.007Z,1.95
2023-05-25T13:20:21.236Z,2.28
2023-05-25T13:22:52.171Z,2.33
2023-05-25T13:25:21.843Z,2.30
2023-05-25T13:27:51.540Z,2.03
2023-05-25T13:30:21.964Z,3.22
2023-05-25T13:32:51.360Z,2.40
2023-05-25T13:35:24.298Z,2.13
2023-05-25T13:37:51.442Z,2.60
2023-05-25T13:40:18.900Z,2.70
2023-05-25T13:42:45.741Z,2.03
2023-05-25T13:45:13.835Z,2.05
2023-05-25T13:47:43.502Z,2.40
2023-05-25T13:50:11.311Z,4.25
2023-05-25T13:52:38.222Z,2.45
2023-05-25T13:55:05.798Z,2.55
2023-05-25T13:57:32.763Z,2.03
2023-05-25T13:59:59.528Z,2.75
2023-05-25T14:02:26.423Z,2.40
2023-05-25T14:04:53.247Z,1.90
2023-05-25T14:07:20.100Z,3.13
2023-05-25T14:09:46.926Z,2.92
2023-05-25T14:12:14.440Z,2.97
2023-05-25T14:14:41.328Z,2.33
2023-05-25T14:17:08.131Z,3.35
2023-05-25T14:19:35.280Z,2.53
2023-05-25T14:24:32.074Z,2.30
2023-05-25T14:26:59.353Z,3.10
2023-05-25T14:29:26.157Z,2.83
2023-05-25T14:31:53.276Z,2.58
2023-05-25T14:34:20.179Z,3.15
2023-05-25T14:36:46.929Z,3.15
2023-05-25T14:39:15.691Z,2.90
2023-05-25T14:41:44.218Z,4.05
2023-05-25T14:44:11.179Z,2.88
2023-05-25T14:46:38.111Z,2.60
2023-05-25T14:49:04.961Z,3.13
2023-05-25T14:51:31.753Z,2.47
2023-05-25T14:54:00.385Z,3.58
2023-05-25T14:56:28.144Z,2.60
2023-05-25T14:58:54.953Z,2.95
2023-05-25T15:01:24.467Z,2.92
2023-05-25T15:03:52.317Z,2.92
2023-05-25T15:06:22.324Z,4.15
2023-05-25T15:08:49.220Z,3.17
2023-05-25T15:11:16.104Z,3.58
2023-05-25T15:13:42.826Z,2.53
2023-05-25T15:16:14.873Z,2.67
2023-05-25T15:18:41.713Z,3.20
2023-05-25T15:21:09.045Z,2.70
2023-05-25T15:23:36.522Z,2.88
2023-05-25T15:26:07.718Z,3.10
2023-05-25T15:28:34.861Z,2.67
2023-05-25T15:31:03.188Z,2.85
2023-05-25T15:33:47.820Z,2.22
2023-05-25T15:36:16.850Z,3.08
2023-05-25T15:38:44.392Z,3.13
2023-05-25T15:41:14.833Z,2.75
2023-05-25T15:43:41.938Z,3.38
2023-05-25T15:46:09.003Z,3.03
2023-05-25T15:48:35.912Z,3.22
2023-05-25T15:51:02.772Z,3.25
2023-05-25T15:53:30.361Z,2.83
2023-05-25T15:55:57.351Z,3.58
2023-05-25T15:58:24.126Z,3.50
2023-05-25T16:00:50.889Z,3.53
2023-05-25T16:03:17.789Z,3.30
2023-05-25T16:05:44.855Z,2.85
2023-05-25T16:08:13.834Z,2.42
2023-05-25T16:10:43.130Z,2.72
2023-05-25T16:13:10.036Z,3.53
2023-05-25T16:15:36.863Z,3.22
2023-05-25T16:18:05.315Z,3.05
2023-05-25T16:20:32.198Z,2.75
2023-05-25T16:22:59.093Z,2.78
2023-05-25T16:25:25.906Z,3.45
2023-05-25T16:27:52.889Z,3.50
2023-05-25T16:30:19.743Z,3.70
2023-05-25T16:32:46.552Z,3.30
2023-05-25T16:35:13.418Z,3.00
2023-05-25T16:37:40.207Z,4.18
2023-05-25T16:40:08.134Z,2.95
2023-05-25T16:42:34.872Z,3.28
2023-05-25T16:45:01.662Z,3.47
2023-05-25T16:47:30.977Z,2.83
2023-05-25T16:49:57.801Z,3.65
2023-05-25T16:52:24.568Z,2.83
2023-05-25T16:54:51.330Z,3.13
2023-05-25T16:57:18.173Z,3.45
2023-05-25T16:59:45.552Z,3.15
2023-05-25T17:02:14.409Z,3.55
2023-05-25T17:04:42.654Z,2.80
2023-05-25T17:07:09.589Z,3.35
2023-05-25T17:09:36.407Z,3.08
2023-05-25T17:12:03.689Z,3.35
2023-05-25T17:14:31.011Z,3.75
2023-05-25T17:16:57.733Z,3.33
2023-05-25T17:19:24.686Z,3.75
2023-05-25T17:21:51.660Z,3.28
2023-05-25T17:24:18.481Z,3.10
2023-05-25T17:26:46.417Z,3.35
2023-05-25T17:29:13.177Z,3.17
2023-05-25T17:31:40.005Z,4.03
2023-05-25T17:34:06.851Z,3.63
2023-05-25T17:36:33.600Z,3.10
2023-05-25T17:39:00.511Z,3.45
2023-05-25T17:41:27.631Z,3.30
2023-05-25T17:43:54.434Z,3.00
2023-05-25T17:46:22.445Z,3.33
2023-05-25T17:48:49.197Z,3.60
2023-05-25T17:51:16.086Z,3.47
2023-05-25T17:53:42.881Z,3.05
2023-05-25T17:56:10.722Z,4.18
2023-05-25T17:58:38.088Z,3.28
2023-05-25T18:01:05.443Z,3.30
2023-05-25T18:03:33.007Z,3.10
2023-05-25T18:05:59.855Z,2.90
2023-05-25T18:08:26.654Z,2.83
2023-05-25T18:10:53.535Z,3.28
2023-05-25T18:13:20.364Z,3.95
2023-05-25T18:15:47.246Z,3.47
2023-05-25T18:18:16.310Z,3.10
2023-05-25T18:20:45.701Z,3.97
2023-05-25T18:23:13.276Z,3.67
2023-05-25T18:25:40.177Z,2.70
2023-05-25T18:28:07.134Z,3.83
2023-05-25T18:30:34.212Z,3.83
2023-05-25T18:33:01.095Z,3.17
2023-05-25T18:35:28.393Z,3.30
2023-05-25T18:37:55.167Z,4.65
2023-05-25T18:40:22.013Z,3.03
2023-05-25T18:42:48.779Z,3.65
2023-05-25T18:45:15.592Z,2.90
2023-05-25T18:47:42.551Z,4.07
2023-05-25T18:50:10.937Z,4.00
2023-05-25T18:52:38.334Z,2.58
2023-05-25T18:55:07.692Z,2.70
2023-05-25T18:57:36.551Z,3.45
2023-05-25T19:00:03.908Z,2.80
2023-05-25T19:02:30.832Z,3.65
2023-05-25T19:04:57.783Z,3.70
2023-05-25T19:07:24.500Z,3.08
2023-05-25T19:09:52.573Z,2.67
2023-05-25T19:12:19.364Z,3.65
2023-05-25T19:14:46.190Z,3.28
2023-05-25T19:17:12.998Z,3.55
2023-05-25T19:19:39.870Z,2.55
2023-05-25T19:22:06.648Z,3.42
2023-05-25T19:24:33.443Z,2.63
2023-05-25T19:27:01.296Z,3.17
2023-05-25T19:29:38.591Z,2.67
2023-05-25T19:32:06.794Z,3.15
2023-05-25T19:34:33.811Z,3.75
2023-05-25T19:37:10.867Z,3.00
2023-05-25T19:39:38.684Z,4.47
2023-05-25T19:42:06.379Z,2.97
2023-05-25T19:44:34.344Z,3.35
2023-05-25T19:47:01.214Z,4.20
2023-05-25T19:49:29.500Z,3.28
2023-05-25T19:51:56.261Z,3.67
2023-05-25T19:54:24.240Z,2.90
2023-05-25T19:56:53.127Z,3.38
2023-05-25T19:59:21.696Z,4.32
2023-05-25T20:01:48.693Z,3.65
2023-05-25T20:04:15.599Z,2.97
2023-05-25T20:06:42.453Z,3.17
2023-05-25T20:09:12.523Z,2.50
2023-05-25T20:11:39.613Z,2.95
2023-05-25T20:14:14.499Z,3.15
2023-05-25T20:16:41.650Z,3.72
2023-05-25T20:19:11.062Z,2.92
2023-05-25T20:21:40.288Z,2.83
2023-05-25T20:24:07.124Z,4.72
2023-05-25T20:26:34.110Z,3.03
2023-05-25T20:29:00.879Z,3.47
2023-05-25T20:31:27.679Z,3.28
2023-05-25T20:33:54.499Z,3.10
2023-05-25T20:36:21.455Z,4.05
2023-05-25T20:38:48.256Z,2.97
2023-05-25T20:41:15.039Z,3.25
2023-05-25T20:43:41.971Z,2.47
2023-05-25T20:46:11.264Z,2.95
2023-05-25T20:48:39.456Z,3.15
2023-05-25T20:51:06.313Z,3.30
2023-05-25T20:53:33.123Z,2.80
2023-05-25T20:56:02.182Z,3.47
2023-05-25T20:58:28.975Z,2.47
2023-05-25T21:00:55.913Z,3.17
2023-05-25T21:03:22.797Z,2.97
2023-05-25T21:05:49.602Z,3.42
2023-05-25T21:08:18.421Z,5.05
2023-05-25T21:10:45.412Z,3.28
2023-05-25T21:13:12.604Z,3.50
2023-05-25T21:15:39.408Z,3.80
2023-05-25T21:18:07.037Z,3.35
2023-05-25T21:20:33.907Z,3.55
2023-05-25T21:23:02.440Z,3.10
2023-05-25T21:25:29.876Z,3.20
2023-05-25T21:27:57.330Z,2.78
2023-05-25T21:30:24.632Z,2.83
2023-05-25T21:32:51.503Z,2.70
2023-05-25T21:35:18.450Z,3.55
2023-05-25T21:37:45.692Z,2.55
2023-05-25T21:40:13.149Z,4.50
2023-05-25T21:42:39.911Z,3.15
2023-05-25T21:45:07.677Z,3.75
2023-05-25T21:47:34.595Z,3.55
2023-05-25T21:50:01.428Z,3.08
2023-05-25T21:52:28.270Z,3.08
2023-05-25T21:54:55.253Z,3.05
2023-05-25T21:57:23.450Z,3.20
2023-05-25T21:59:51.469Z,3.25
2023-05-25T22:02:18.264Z,2.97
2023-05-25T22:04:45.034Z,3.65
2023-05-25T22:07:11.851Z,3.28
2023-05-25T22:09:38.612Z,2.60
2023-05-25T22:12:06.680Z,3.15
2023-05-25T22:14:33.449Z,3.42
2023-05-25T22:17:00.212Z,3.55
2023-05-25T22:19:27.121Z,4.13
2023-05-25T22:21:56.466Z,3.28
2023-05-25T22:24:23.269Z,3.38
2023-05-25T22:26:50.030Z,3.00
2023-05-25T22:29:16.807Z,3.10
2023-05-25T22:31:43.606Z,3.35
2023-05-25T22:34:10.611Z,3.70
2023-05-25T22:36:37.776Z,2.80
2023-05-25T22:39:04.604Z,3.58
2023-05-25T22:41:31.630Z,2.78
2023-05-25T22:43:58.406Z,2.90
2023-05-25T22:46:25.257Z,2.78
2023-05-25T22:48:52.106Z,3.40
2023-05-25T22:51:18.869Z,3.50
2023-05-25T22:53:45.720Z,3.30
2023-05-25T22:56:12.531Z,3.05
2023-05-25T22:58:39.353Z,3.35
2023-05-25T23:01:06.148Z,3.45
2023-05-25T23:03:35.341Z,3.15
2023-05-25T23:06:02.229Z,3.15
2023-05-25T23:08:29.068Z,4.35
2023-05-25T23:10:55.797Z,2.97
2023-05-25T23:13:24.179Z,3.40
2023-05-25T23:15:51.164Z,4.10
2023-05-25T23:18:18.059Z,3.05
2023-05-25T23:20:45.105Z,2.97
2023-05-25T23:23:12.501Z,3.50
2023-05-25T23:25:39.577Z,2.67
2023-05-25T23:28:06.386Z,2.95
2023-05-25T23:30:33.160Z,3.42
2023-05-25T23:33:01.022Z,3.00
2023-05-25T23:35:28.572Z,3.42
2023-05-25T23:37:57.493Z,3.55
2023-05-25T23:40:24.336Z,3.00
2023-05-25T23:42:51.485Z,3.28
2023-05-25T23:45:19.210Z,2.90
2023-05-25T23:47:46.255Z,3.22
2023-05-25T23:50:13.255Z,3.10
2023-05-25T23:52:41.320Z,3.13
2023-05-25T23:55:08.611Z,3.38
2023-05-25T23:57:49.452Z,3.25
